createdAt,value
2022-11-01T00:00:39.461Z,8.80
2022-11-01T00:03:43.125Z,7.75
2022-11-01T00:06:46.829Z,6.53
2022-11-01T00:09:49.889Z,8.77
2022-11-01T00:12:52.838Z,6.07
2022-11-01T00:15:59.375Z,5.43
2022-11-01T00:19:02.993Z,7.45
2022-11-01T00:22:07.443Z,4.65
2022-11-01T00:25:10.888Z,3.70
2022-11-01T00:28:14.222Z,4.40
2022-11-01T00:31:19.316Z,4.27
2022-11-01T00:34:23.420Z,6.25
2022-11-01T00:37:29.414Z,6.88
2022-11-01T00:40:34.078Z,5.82
2022-11-01T00:43:38.095Z,7.38
2022-11-01T00:46:42.127Z,5.43
2022-11-01T00:49:45.404Z,5.30
2022-11-01T00:52:49.566Z,5.55
2022-11-01T00:55:52.668Z,5.80
2022-11-01T00:58:56.295Z,5.50
2022-11-01T01:01:59.951Z,11.53
2022-11-01T01:05:04.588Z,8.07
2022-11-01T01:08:08.159Z,8.32
2022-11-01T01:11:11.572Z,12.55
2022-11-01T01:14:15.365Z,9.25
2022-11-01T01:17:20.133Z,14.37
2022-11-01T01:20:23.693Z,21.67
2022-11-01T01:23:27.787Z,21.50
2022-11-01T01:26:30.762Z,18.15
2022-11-01T01:29:35.989Z,21.33
2022-11-01T01:32:40.051Z,16.80
2022-11-01T01:35:43.868Z,15.30
2022-11-01T01:38:47.533Z,15.80
2022-11-01T01:41:57.478Z,16.08
2022-11-01T01:45:01.047Z,14.20
2022-11-01T01:48:26.905Z,12.97
2022-11-01T01:51:30.795Z,9.00
2022-11-01T01:54:34.136Z,9.88
2022-11-01T01:57:40.084Z,7.93
2022-11-01T02:00:45.248Z,7.75
2022-11-01T02:03:49.495Z,8.30
2022-11-01T02:06:53.488Z,8.30
2022-11-01T02:09:57.790Z,10.35
2022-11-01T02:13:01.301Z,10.07
2022-11-01T02:16:33.191Z,13.48
2022-11-01T02:20:05.234Z,10.47
2022-11-01T02:23:46.751Z,6.50
2022-11-01T02:27:19.711Z,6.45
2022-11-01T02:30:23.751Z,5.55
2022-11-01T02:33:29.824Z,4.47
2022-11-01T02:36:41.683Z,8.10
2022-11-01T02:39:51.860Z,11.67
2022-11-01T02:42:59.963Z,3.58
2022-11-01T02:46:27.381Z,5.13
2022-11-01T02:49:34.965Z,5.97
2022-11-01T02:52:42.146Z,4.17
2022-11-01T02:58:54.432Z,5.78
2022-11-01T03:02:08.199Z,3.00
2022-11-01T03:05:28.872Z,5.78
2022-11-01T03:08:49.174Z,2.30
2022-11-01T03:12:09.737Z,3.80
2022-11-01T03:15:24.554Z,3.08
2022-11-01T03:18:36.662Z,2.80
2022-11-01T03:21:43.947Z,4.43
2022-11-01T03:25:05.389Z,2.53
2022-11-01T03:28:25.222Z,2.67
2022-11-01T03:31:34.402Z,2.13
2022-11-01T03:34:39.784Z,4.10
2022-11-01T03:37:46.228Z,3.67
2022-11-01T03:40:54.438Z,2.83
2022-11-01T03:43:58.007Z,4.25
2022-11-01T03:47:01.119Z,3.00
2022-11-01T03:50:20.306Z,3.58
2022-11-01T03:53:24.244Z,2.28
2022-11-01T03:56:27.584Z,2.67
2022-11-01T03:59:31.472Z,1.83
2022-11-01T04:02:35.269Z,4.20
2022-11-01T04:05:40.705Z,5.95
2022-11-01T04:08:43.628Z,3.08
2022-11-01T04:11:46.643Z,2.53
2022-11-01T04:15:08.541Z,3.53
2022-11-01T04:18:42.672Z,3.17
2022-11-01T04:21:46.587Z,3.50
2022-11-01T04:24:50.978Z,6.32
2022-11-01T04:27:56.991Z,3.23
2022-11-01T04:31:01.019Z,3.35
2022-11-01T04:34:05.688Z,4.80
2022-11-01T04:37:10.317Z,4.78
2022-11-01T04:40:14.939Z,2.55
2022-11-01T04:43:17.963Z,1.50
2022-11-01T04:46:22.249Z,3.60
2022-11-01T04:49:25.972Z,3.38
2022-11-01T04:52:29.554Z,9.15
2022-11-01T04:55:33.263Z,4.38
2022-11-01T04:58:42.929Z,5.57
2022-11-01T05:01:49.494Z,4.00
2022-11-01T05:04:52.870Z,3.63
2022-11-01T05:08:05.629Z,3.53
2022-11-01T05:11:09.373Z,4.35
2022-11-01T05:14:13.189Z,6.63
2022-11-01T05:17:16.175Z,11.55
2022-11-01T05:20:19.489Z,8.30
2022-11-01T05:23:22.920Z,11.80
2022-11-01T05:26:28.243Z,5.75
2022-11-01T05:29:33.184Z,6.67
2022-11-01T05:32:38.357Z,13.63
2022-11-01T05:35:42.432Z,11.80
2022-11-01T05:38:45.665Z,8.18
2022-11-01T05:41:49.287Z,8.90
2022-11-01T05:44:53.135Z,15.87
2022-11-01T05:47:57.311Z,4.73
2022-11-01T05:51:01.834Z,4.63
2022-11-01T05:54:05.965Z,3.63
2022-11-01T05:57:09.304Z,6.05
2022-11-01T06:00:13.815Z,5.47
2022-11-01T06:03:17.755Z,7.43
2022-11-01T06:06:21.851Z,8.15
2022-11-01T06:09:25.610Z,6.95
2022-11-01T06:12:29.383Z,4.60
2022-11-01T06:15:34.397Z,9.57
2022-11-01T06:18:41.342Z,5.77
2022-11-01T06:21:45.073Z,4.75
2022-11-01T06:24:49.174Z,4.57
2022-11-01T06:27:52.150Z,5.68
2022-11-01T06:30:56.456Z,4.67
2022-11-01T06:34:00.086Z,3.43
2022-11-01T06:37:03.661Z,3.05
2022-11-01T06:40:13.634Z,4.70
2022-11-01T06:43:17.134Z,4.65
2022-11-01T06:46:20.254Z,6.57
2022-11-01T06:49:24.097Z,4.90
2022-11-01T06:52:27.754Z,3.95
2022-11-01T06:55:31.772Z,5.70
2022-11-01T06:58:35.037Z,4.95
2022-11-01T07:01:38.909Z,4.77
2022-11-01T07:04:42.714Z,5.53
2022-11-01T07:07:46.360Z,6.15
2022-11-01T07:10:52.211Z,4.15
2022-11-01T07:13:55.860Z,4.05
2022-11-01T07:16:59.286Z,2.10
2022-11-01T07:20:02.972Z,6.80
2022-11-01T07:23:06.892Z,4.40
2022-11-01T07:26:11.133Z,11.32
2022-11-01T07:29:14.922Z,6.97
2022-11-01T07:32:18.802Z,9.20
2022-11-01T07:35:21.733Z,6.93
2022-11-01T07:38:24.876Z,9.50
2022-11-01T07:41:28.126Z,8.52
2022-11-01T07:44:31.460Z,5.00
2022-11-01T07:47:34.767Z,7.07
2022-11-01T07:50:40.829Z,7.03
2022-11-01T07:53:43.831Z,9.13
2022-11-01T07:56:48.726Z,7.45
2022-11-01T07:59:52.293Z,11.80
2022-11-01T08:03:08.251Z,6.43
2022-11-01T08:06:12.052Z,7.37
2022-11-01T08:09:16.132Z,7.38
2022-11-01T08:12:19.201Z,7.30
2022-11-01T08:15:22.698Z,8.23
2022-11-01T08:18:25.695Z,7.90
2022-11-01T08:21:29.138Z,6.10
2022-11-01T08:24:32.163Z,5.57
2022-11-01T08:27:35.597Z,5.93
2022-11-01T08:30:40.585Z,9.80
2022-11-01T08:33:44.875Z,9.33
2022-11-01T08:36:48.537Z,7.77
2022-11-01T08:39:51.614Z,7.65
2022-11-01T08:42:54.808Z,12.95
2022-11-01T08:46:00.619Z,13.32
2022-11-01T08:49:04.812Z,12.37
2022-11-01T08:52:08.481Z,17.30
2022-11-01T08:55:14.390Z,19.63
2022-11-01T08:58:17.297Z,17.83
2022-11-01T09:01:21.118Z,19.73
2022-11-01T09:04:25.306Z,19.27
2022-11-01T09:07:28.299Z,23.57
2022-11-01T09:10:33.074Z,21.15
2022-11-01T09:13:36.401Z,13.93
2022-11-01T09:16:40.630Z,21.35
2022-11-01T09:19:44.365Z,22.77
2022-11-01T09:22:53.169Z,16.47
2022-11-01T09:26:06.474Z,20.33
2022-11-01T09:29:09.910Z,13.82
2022-11-01T09:32:13.525Z,20.52
2022-11-01T09:35:17.781Z,24.90
2022-11-01T09:38:20.736Z,18.93
2022-11-01T09:41:36.391Z,18.05
2022-11-01T09:44:46.396Z,22.92
2022-11-01T09:47:55.451Z,29.45
2022-11-01T09:51:03.327Z,30.30
2022-11-01T09:54:09.276Z,28.63
2022-11-01T09:57:35.724Z,33.20
2022-11-01T10:00:45.771Z,38.63
2022-11-01T10:04:07.542Z,35.08
2022-11-01T10:07:33.403Z,26.87
2022-11-01T10:10:54.956Z,26.60
2022-11-01T10:14:24.411Z,29.10
2022-11-01T10:17:56.042Z,30.73
2022-11-01T10:21:06.983Z,32.35
2022-11-01T10:24:35.995Z,33.03
2022-11-01T10:28:06.299Z,34.22
2022-11-01T10:31:17.062Z,37.33
2022-11-01T10:34:31.984Z,41.38
2022-11-01T10:37:58.161Z,36.13
2022-11-01T10:41:17.753Z,29.63
2022-11-01T10:44:35.995Z,36.80
2022-11-01T10:47:43.306Z,32.58
2022-11-01T10:50:47.446Z,34.38
2022-11-01T10:53:59.321Z,37.97
2022-11-01T10:57:09.180Z,36.37
2022-11-01T11:00:19.014Z,33.75
2022-11-01T11:03:30.067Z,33.33
2022-11-01T11:06:35.576Z,38.17
2022-11-01T11:09:39.526Z,33.75
2022-11-01T11:12:43.009Z,29.07
2022-11-01T11:16:01.329Z,33.08
2022-11-01T11:19:19.859Z,35.55
2022-11-01T11:22:24.627Z,37.28
2022-11-01T11:25:34.774Z,27.50
2022-11-01T11:28:45.206Z,28.83
2022-11-01T11:31:57.322Z,29.92
2022-11-01T11:35:03.618Z,29.13
2022-11-01T11:38:07.853Z,30.80
2022-11-01T11:41:13.638Z,29.88
2022-11-01T11:44:34.905Z,48.57
2022-11-01T11:47:39.687Z,31.55
2022-11-01T11:50:43.999Z,26.77
2022-11-01T11:54:38.413Z,25.67
2022-11-01T11:57:52.641Z,20.00
2022-11-01T12:01:04.312Z,24.17
2022-11-01T12:04:19.497Z,29.48
2022-11-01T12:07:46.532Z,35.78
2022-11-01T12:10:58.622Z,25.27
2022-11-01T12:14:18.436Z,23.65
2022-11-01T12:17:25.080Z,46.57
2022-11-01T12:20:39.007Z,75.88
2022-11-01T12:23:42.921Z,76.60
2022-11-01T12:26:46.543Z,68.68
2022-11-01T12:30:01.461Z,48.47
2022-11-01T12:33:29.515Z,52.23
2022-11-01T12:36:44.202Z,61.88
2022-11-01T12:40:03.509Z,53.63
2022-11-01T12:43:30.408Z,55.03
2022-11-01T12:46:52.733Z,51.67
2022-11-01T12:50:02.546Z,47.23
2022-11-01T12:53:19.999Z,46.85
2022-11-01T12:56:23.829Z,54.00
2022-11-01T12:59:33.768Z,53.80
2022-11-01T13:02:58.781Z,47.95
2022-11-01T13:06:24.402Z,43.03
2022-11-01T13:10:07.626Z,50.15
2022-11-01T13:13:37.191Z,53.65
2022-11-01T13:16:45.404Z,51.85
2022-11-01T13:20:24.915Z,66.70
2022-11-01T13:23:31.117Z,36.53
2022-11-01T13:26:49.127Z,34.63
2022-11-01T13:30:20.634Z,23.48
2022-11-01T13:33:45.682Z,22.65
2022-11-01T13:37:07.356Z,14.18
2022-11-01T13:40:31.017Z,11.17
2022-11-01T13:43:44.483Z,14.35
2022-11-01T13:47:00.330Z,17.20
2022-11-01T13:50:09.694Z,9.90
2022-11-01T13:53:16.066Z,7.60
2022-11-01T13:56:35.151Z,9.53
2022-11-01T13:59:38.108Z,9.27
2022-11-01T14:02:59.559Z,8.88
2022-11-01T14:06:12.506Z,9.43
2022-11-01T14:09:28.783Z,10.02
2022-11-01T14:12:48.116Z,17.40
2022-11-01T14:15:55.365Z,12.98
2022-11-01T14:19:04.537Z,10.98
2022-11-01T14:22:28.321Z,9.63
2022-11-01T14:25:33.552Z,6.70
2022-11-01T14:28:44.695Z,7.57
2022-11-01T14:31:52.988Z,5.25
2022-11-01T14:35:05.477Z,5.72
2022-11-01T14:38:16.025Z,7.90
2022-11-01T14:41:21.303Z,7.85
2022-11-01T14:44:35.925Z,6.93
2022-11-01T14:47:41.648Z,8.45
2022-11-01T14:51:10.771Z,7.80
2022-11-01T14:54:16.931Z,10.18
2022-11-01T14:57:29.177Z,9.15
2022-11-01T15:00:33.260Z,4.77
2022-11-01T15:03:37.005Z,6.55
2022-11-01T15:06:43.996Z,5.15
2022-11-01T15:10:10.465Z,4.13
2022-11-01T15:13:17.145Z,11.27
2022-11-01T15:16:23.687Z,7.57
2022-11-01T15:19:34.570Z,9.45
2022-11-01T15:22:37.568Z,10.15
2022-11-01T15:25:41.721Z,8.20
2022-11-01T15:29:07.881Z,12.38
2022-11-01T15:32:28.509Z,12.90
2022-11-01T15:35:33.963Z,20.70
2022-11-01T15:38:52.001Z,18.00
2022-11-01T15:41:57.058Z,26.20
2022-11-01T15:45:30.730Z,30.58
2022-11-01T15:48:36.237Z,33.70
2022-11-01T15:51:49.083Z,39.83
2022-11-01T15:55:17.131Z,55.28
2022-11-01T15:58:28.561Z,49.97
2022-11-01T16:01:32.394Z,55.88
2022-11-01T16:04:46.576Z,50.50
2022-11-01T16:07:50.396Z,40.60
2022-11-01T16:10:53.819Z,45.67
2022-11-01T16:14:05.576Z,41.05
2022-11-01T16:17:24.617Z,19.20
2022-11-01T16:20:37.891Z,24.40
2022-11-01T16:23:51.473Z,47.88
2022-11-01T16:27:01.901Z,82.10
2022-11-01T16:30:10.620Z,27.20
2022-11-01T16:33:30.956Z,28.02
2022-11-01T16:36:38.984Z,22.77
2022-11-01T16:39:42.631Z,23.33
2022-11-01T16:42:45.588Z,28.85
2022-11-01T16:45:49.132Z,26.00
2022-11-01T16:48:56.005Z,28.17
2022-11-01T16:51:59.907Z,32.23
2022-11-01T16:55:03.655Z,28.10
2022-11-01T16:58:08.463Z,39.67
2022-11-01T17:01:21.669Z,59.40
2022-11-01T17:04:27.473Z,67.15
2022-11-01T17:07:33.172Z,61.77
2022-11-01T17:10:37.390Z,48.13
2022-11-01T17:13:41.841Z,48.50
2022-11-01T17:16:47.699Z,34.63
2022-11-01T17:19:57.423Z,33.95
2022-11-01T17:23:01.294Z,34.83
2022-11-01T17:26:08.490Z,30.58
2022-11-01T17:29:15.626Z,34.38
2022-11-01T17:32:19.440Z,34.72
2022-11-01T17:35:26.597Z,23.48
2022-11-01T17:38:35.431Z,24.67
2022-11-01T17:41:39.409Z,29.20
2022-11-01T17:44:43.255Z,19.85
2022-11-01T17:47:47.600Z,24.50
2022-11-01T17:50:51.332Z,22.33
2022-11-01T17:53:58.824Z,22.23
2022-11-01T17:57:02.597Z,18.05
2022-11-01T18:00:06.435Z,17.75
2022-11-01T18:03:18.009Z,15.27
2022-11-01T18:06:21.987Z,15.77
2022-11-01T18:09:25.995Z,11.77
2022-11-01T18:12:44.816Z,13.52
2022-11-01T18:15:51.795Z,10.05
2022-11-01T18:19:20.732Z,4.72
2022-11-01T18:22:36.385Z,5.57
2022-11-01T18:25:48.509Z,6.70
2022-11-01T18:28:55.766Z,6.32
2022-11-01T18:32:28.960Z,6.07
2022-11-01T18:35:47.585Z,6.93
2022-11-01T18:39:22.778Z,8.37
2022-11-01T18:42:27.148Z,4.28
2022-11-01T18:45:45.538Z,14.07
2022-11-01T18:49:00.599Z,13.75
2022-11-01T18:52:10.233Z,5.77
2022-11-01T18:55:14.550Z,8.45
2022-11-01T18:58:28.531Z,9.77
2022-11-01T19:01:32.825Z,6.82
2022-11-01T19:04:38.413Z,9.27
2022-11-01T19:08:05.312Z,4.90
2022-11-01T19:11:06.258Z,9.13
2022-11-01T19:14:13.511Z,4.43
2022-11-01T19:17:24.645Z,7.10
2022-11-01T19:20:32.609Z,4.27
2022-11-01T19:24:11.112Z,5.47
2022-11-01T19:27:21.160Z,14.05
2022-11-01T19:30:30.404Z,9.38
2022-11-01T19:33:38.301Z,5.93
2022-11-01T19:36:45.346Z,6.70
2022-11-01T19:39:49.626Z,6.60
2022-11-01T19:42:55.412Z,10.23
2022-11-01T19:46:00.559Z,16.77
2022-11-01T19:49:26.662Z,5.22
2022-11-01T19:52:40.100Z,8.55
2022-11-01T19:55:54.612Z,17.45
2022-11-01T19:58:59.651Z,24.95
2022-11-01T20:02:10.162Z,24.48
2022-11-01T20:05:26.233Z,22.60
2022-11-01T20:08:34.899Z,17.17
2022-11-01T20:11:38.568Z,22.45
2022-11-01T20:14:42.871Z,9.98
2022-11-01T20:17:46.588Z,6.23
2022-11-01T20:20:50.370Z,6.53
2022-11-01T20:23:53.986Z,7.03
2022-11-01T20:27:00.621Z,8.52
2022-11-01T20:30:04.706Z,7.93
2022-11-01T20:33:08.975Z,8.27
2022-11-01T20:36:13.293Z,8.93
2022-11-01T20:39:19.015Z,8.80
2022-11-01T20:42:25.417Z,18.45
2022-11-01T20:45:29.653Z,13.90
2022-11-01T20:48:33.498Z,9.68
2022-11-01T20:51:37.734Z,10.15
2022-11-01T20:54:42.095Z,16.92
2022-11-01T20:57:46.233Z,13.30
2022-11-01T21:00:52.122Z,12.15
2022-11-01T21:03:56.684Z,10.23
2022-11-01T21:07:00.403Z,11.90
2022-11-01T21:10:24.069Z,15.38
2022-11-01T21:13:37.532Z,12.27
2022-11-01T21:16:41.603Z,15.60
2022-11-01T21:19:54.030Z,17.02
2022-11-01T21:23:03.610Z,16.40
2022-11-01T21:26:18.937Z,12.68
2022-11-01T21:29:27.955Z,14.90
2022-11-01T21:32:44.057Z,12.30
2022-11-01T21:35:48.967Z,11.77
2022-11-01T21:39:25.713Z,8.43
2022-11-01T21:42:33.103Z,6.03
2022-11-01T21:45:37.138Z,9.97
2022-11-01T21:48:40.070Z,9.40
2022-11-01T21:51:43.781Z,9.95
2022-11-01T21:54:48.667Z,14.02
2022-11-01T21:57:52.443Z,12.60
2022-11-01T22:00:56.854Z,20.50
2022-11-01T22:04:00.297Z,6.43
2022-11-01T22:07:06.851Z,7.28
2022-11-01T22:10:10.701Z,6.80
2022-11-01T22:13:14.611Z,7.38
2022-11-01T22:16:18.262Z,11.82
2022-11-01T22:19:22.455Z,10.75
2022-11-01T22:22:26.113Z,6.70
2022-11-01T22:25:30.071Z,27.77
2022-11-01T22:28:33.498Z,25.90
2022-11-01T22:31:37.628Z,43.03
2022-11-01T22:34:41.288Z,43.00
2022-11-01T22:37:45.261Z,38.75
2022-11-01T22:44:07.693Z,43.03
2022-11-01T22:47:30.192Z,29.95
2022-11-01T22:50:33.875Z,14.80
2022-11-01T22:53:37.402Z,28.00
2022-11-01T22:56:41.080Z,9.00
2022-11-01T22:59:52.992Z,16.53
2022-11-01T23:03:18.195Z,6.57
2022-11-01T23:06:21.743Z,17.92
2022-11-01T23:09:25.727Z,8.70
2022-11-01T23:12:47.905Z,34.43
2022-11-01T23:15:52.414Z,38.05
2022-11-01T23:19:00.421Z,44.42
2022-11-01T23:22:04.093Z,37.03
2022-11-01T23:25:09.161Z,47.88
2022-11-01T23:28:13.689Z,49.40
2022-11-01T23:31:18.073Z,45.50
2022-11-01T23:34:22.029Z,59.45
2022-11-01T23:37:25.928Z,52.93
2022-11-01T23:40:34.107Z,70.30
2022-11-01T23:43:41.326Z,55.30
2022-11-01T23:46:45.094Z,49.58
2022-11-01T23:49:58.111Z,48.95
2022-11-01T23:53:10.244Z,39.38
2022-11-01T23:56:18.625Z,36.00
2022-11-01T23:59:22.756Z,44.35
